Airfield :
LOGIN :

Register | Disclaimer

   EN    FR    IT 

 










Legend :    VFR   Marginal VFR   IFR   Intensive IFR   Very Intensive IFR
Visi :
Ceiling :
>= 8 km
>= 3000ft
5 to 8 km
1000 to 3000 ft
1500m to 5 km
500 to 1000 ft
800 to 1500m
200 to 500 ft
< 800m
< 200 ft
Symbols :   Thunderstorms  Fog  Heavy snow  Heavy precipitations  Wind > 20 kt
SIGMETs :     Misc.  Thunderstorms  Icing  Turbulence  Mountain Waves  Volcanic Ashes






- Airport Elevation : 202 ft
- IATA code : LGW


EGKK - London Gatwick

CURRENT METAR :
  • 130950Z 26004KT 170V310 9999 SCT024 16/11 Q1014

EXPIRED METARs :
  • 130920Z 32005KT 240V040 9999 SCT024 16/10 Q1014
  • 130850Z 31005KT 250V340 9999 FEW023 16/10 Q1014
  • 130820Z 31007KT 280V360 9999 FEW024 15/10 Q1014
  • 130750Z 31006KT 270V350 9999 FEW032 15/10 Q1015
  • 130720Z 29005KT 250V340 CAVOK 14/10 Q1015
  • 130650Z 27005KT 230V320 CAVOK 13/10 Q1015
  • 130620Z 27003KT 200V310 CAVOK 13/09 Q1015
  • 130550Z 29003KT 250V360 9999 -SHRA FEW046 13/09 Q1015
  • 130520Z VRB02KT 9999 FEW046 12/09 Q1015
  • 130450Z 27003KT 240V310 9999 FEW042 12/08 Q1015

TAF TAF EGKK
Valid from the 13 at 06:00 until the 14 at 12:00 UTC


130455Z 1306/1412 28007KT 9999 FEW040
TEMPO 1313/1319 6000 SHRA
BECMG 1400/1403 7000
PROB40 1402/1406 4000 BR
BECMG 1406/1409 9999



MET'MAP, your aeronautical weather chart ! - Copyright ORBIFLY December 2007 - Disclaimer

ORBIFLY MET'MAP TEAM :

Programming & Development : Alexandra Zaïnal
Original concept : Baudouin d'Aumeries
Technical & hardware support : Manuel Goepfert
Assistance : Marc-Olivier Méhu




SOURCES & CREDITS :

   NOAA